createdAt,value
2022-12-08T00:02:44.393Z,159670.00
2022-12-08T00:06:08.077Z,159690.84
2022-12-08T00:09:23.335Z,159683.00
2022-12-08T00:12:30.266Z,159689.56
2022-12-08T00:15:34.651Z,159690.84
2022-12-08T00:18:38.645Z,159689.56
2022-12-08T00:21:42.796Z,159675.22
2022-12-08T00:24:46.960Z,159686.91
2022-12-08T00:27:50.924Z,159685.66
2022-12-08T00:30:54.746Z,159675.22
2022-12-08T00:33:59.040Z,159677.81
2022-12-08T00:37:03.180Z,159672.63
2022-12-08T00:40:08.098Z,159666.09
2022-12-08T00:43:12.617Z,159676.50
2022-12-08T00:46:16.711Z,159664.81
2022-12-08T00:49:20.849Z,159660.91
2022-12-08T00:52:24.797Z,159667.41
2022-12-08T00:55:28.605Z,159651.75
2022-12-08T00:58:32.589Z,159657.00
2022-12-08T01:01:37.081Z,159651.75
2022-12-08T01:04:41.743Z,159657.00
2022-12-08T01:07:46.005Z,159654.34
2022-12-08T01:10:50.246Z,159658.25
2022-12-08T01:13:54.538Z,159640.03
2022-12-08T01:16:58.819Z,159632.19
2022-12-08T01:20:03.393Z,159638.69
2022-12-08T01:23:07.512Z,159654.34
2022-12-08T01:26:14.354Z,159654.34
2022-12-08T01:29:19.318Z,159663.50
2022-12-08T01:32:23.321Z,159662.19
2022-12-08T01:35:27.295Z,159670.00
2022-12-08T01:38:31.772Z,159659.59
2022-12-08T01:41:37.626Z,159670.00
2022-12-08T01:44:41.698Z,159653.06
2022-12-08T01:47:49.576Z,159651.75
2022-12-08T01:50:55.721Z,159646.53
2022-12-08T01:53:59.868Z,159630.88
2022-12-08T01:57:35.261Z,159638.69
2022-12-08T02:00:40.138Z,159624.31
2022-12-08T02:03:50.890Z,159619.19
2022-12-08T02:06:55.342Z,159642.59
2022-12-08T02:09:59.340Z,159638.69
2022-12-08T02:13:06.851Z,159633.47
2022-12-08T02:16:29.185Z,159640.03
2022-12-08T02:19:48.639Z,159620.47
2022-12-08T02:23:13.094Z,159646.53
2022-12-08T02:26:26.282Z,159642.59
2022-12-08T02:30:07.497Z,159638.69
2022-12-08T02:33:48.968Z,159653.06
2022-12-08T02:36:59.298Z,159663.50
2022-12-08T02:40:10.174Z,159679.09
2022-12-08T02:43:34.778Z,159672.63
2022-12-08T02:46:47.161Z,159666.09
2022-12-08T02:49:50.934Z,159690.84
2022-12-08T02:52:55.097Z,159663.50
2022-12-08T02:56:11.295Z,159670.00
2022-12-08T02:59:21.262Z,159660.91
2022-12-08T03:02:50.175Z,159657.00
2022-12-08T03:06:05.611Z,159664.81
2022-12-08T03:09:21.487Z,159647.84
2022-12-08T03:12:43.614Z,159641.28
2022-12-08T03:15:50.902Z,159617.88
2022-12-08T03:19:01.652Z,159613.94
2022-12-08T03:22:07.135Z,159593.06
2022-12-08T03:25:14.576Z,159602.22
2022-12-08T03:28:18.731Z,159623.06
2022-12-08T03:31:26.812Z,159623.06
2022-12-08T03:34:31.535Z,159628.28
2022-12-08T03:37:38.008Z,159653.06
2022-12-08T03:40:43.568Z,159640.03
2022-12-08T03:43:53.279Z,159616.56
2022-12-08T03:46:57.364Z,159589.16
2022-12-08T03:50:01.269Z,159581.34
2022-12-08T03:53:06.254Z,159572.19
2022-12-08T03:56:27.422Z,159568.28
2022-12-08T03:59:31.821Z,159568.28
2022-12-08T04:02:36.245Z,159565.75
2022-12-08T04:05:40.247Z,159576.09
2022-12-08T04:08:44.159Z,159580.00
2022-12-08T04:11:49.297Z,159593.06
2022-12-08T04:14:53.316Z,159568.28
2022-12-08T04:17:57.542Z,159556.59
2022-12-08T04:21:02.140Z,159529.16
2022-12-08T04:24:06.633Z,159540.94
2022-12-08T04:27:10.620Z,159555.28
2022-12-08T04:30:14.868Z,159565.75
2022-12-08T04:33:19.098Z,159568.28
2022-12-08T04:36:23.029Z,159566.97
2022-12-08T04:39:27.061Z,159573.53
2022-12-08T04:42:31.021Z,159591.75
2022-12-08T04:45:35.123Z,159590.47
2022-12-08T04:48:40.299Z,159586.56
2022-12-08T04:51:44.393Z,159572.19
2022-12-08T04:54:48.807Z,159568.28
2022-12-08T04:57:52.952Z,159572.19
2022-12-08T05:00:57.317Z,159589.16
2022-12-08T05:04:01.376Z,159600.91
2022-12-08T05:07:05.370Z,159577.44
2022-12-08T05:10:09.846Z,159583.94
2022-12-08T05:13:13.734Z,159611.38
2022-12-08T05:16:17.647Z,159581.34
2022-12-08T05:19:21.473Z,159583.94
2022-12-08T05:22:25.659Z,159581.34
2022-12-08T05:25:29.718Z,159566.97
2022-12-08T05:28:43.014Z,159569.59
2022-12-08T05:31:47.350Z,159556.59
2022-12-08T05:34:51.413Z,159550.03
2022-12-08T05:37:55.579Z,159538.31
2022-12-08T05:40:59.704Z,159548.78
2022-12-08T05:44:05.960Z,159556.59
2022-12-08T05:47:09.980Z,159569.59
2022-12-08T05:50:14.368Z,159566.97
2022-12-08T05:53:20.060Z,159593.06
2022-12-08T05:56:24.064Z,159590.47
2022-12-08T05:59:28.055Z,159585.25
2022-12-08T06:02:32.451Z,159596.97
2022-12-08T06:05:36.433Z,159568.28
2022-12-08T06:08:40.429Z,159561.84
2022-12-08T06:11:46.366Z,159540.94
2022-12-08T06:14:50.200Z,159513.53
2022-12-08T06:17:54.204Z,159494.03
2022-12-08T06:21:09.558Z,159492.69
2022-12-08T06:24:13.623Z,159492.69
2022-12-08T06:27:17.913Z,159478.38
2022-12-08T06:30:22.037Z,159461.41
2022-12-08T06:33:26.671Z,159448.38
2022-12-08T06:36:30.594Z,159436.69
2022-12-08T06:39:34.774Z,159428.84
2022-12-08T06:42:44.994Z,159424.94
2022-12-08T06:45:49.482Z,159419.72
2022-12-08T06:48:54.230Z,159419.72
2022-12-08T06:51:58.654Z,159411.91
2022-12-08T06:55:03.302Z,159411.91
2022-12-08T06:58:07.249Z,159422.31
2022-12-08T07:01:12.857Z,159411.91
2022-12-08T07:04:17.596Z,159408.00
2022-12-08T07:07:21.821Z,159394.94
2022-12-08T07:10:26.539Z,159384.53
2022-12-08T07:13:30.505Z,159393.63
2022-12-08T07:16:34.733Z,159396.25
2022-12-08T07:19:38.971Z,159397.53
2022-12-08T07:22:51.178Z,159432.78
2022-12-08T07:25:55.279Z,159461.41
2022-12-08T07:29:00.123Z,159471.81
2022-12-08T07:32:04.159Z,159503.09
2022-12-08T07:35:09.210Z,159505.69
2022-12-08T07:38:13.294Z,159516.16
2022-12-08T07:41:19.207Z,159539.63
2022-12-08T07:44:24.332Z,159569.59
2022-12-08T07:47:28.513Z,159585.25
2022-12-08T07:50:32.758Z,159600.91
2022-12-08T07:53:36.792Z,159602.22
2022-12-08T07:56:40.684Z,159611.38
2022-12-08T07:59:44.684Z,159619.19
2022-12-08T08:02:48.576Z,159626.97
2022-12-08T08:05:53.515Z,159610.03
2022-12-08T08:08:57.493Z,159608.72
2022-12-08T08:12:29.662Z,159617.88
2022-12-08T08:15:25.858Z,159641.28
2022-12-08T08:18:30.000Z,159658.25
2022-12-08T08:21:45.576Z,159663.50
2022-12-08T08:24:50.043Z,159688.25
2022-12-08T08:27:54.378Z,159713.03
2022-12-08T08:30:59.185Z,159748.22
2022-12-08T08:34:06.151Z,159771.75
2022-12-08T08:37:10.883Z,159766.50
2022-12-08T08:40:15.172Z,159745.63
2022-12-08T08:43:37.853Z,159787.34
2022-12-08T08:46:42.315Z,159844.75
2022-12-08T08:49:46.379Z,159899.56
2022-12-08T08:52:50.704Z,159900.88
2022-12-08T08:55:54.733Z,159954.38
2022-12-08T08:58:58.753Z,159992.22
2022-12-08T09:02:02.903Z,160009.13
2022-12-08T09:05:07.413Z,160023.50
2022-12-08T09:08:11.788Z,160053.53
2022-12-08T09:11:18.638Z,160037.84
2022-12-08T09:14:23.734Z,160040.50
2022-12-08T09:17:27.576Z,160050.88
2022-12-08T09:20:31.647Z,160075.72
2022-12-08T09:23:36.030Z,160073.13
2022-12-08T09:26:40.046Z,160067.88
2022-12-08T09:29:44.345Z,160074.44
2022-12-08T09:32:48.641Z,160066.59
2022-12-08T09:35:52.501Z,160073.13
2022-12-08T09:38:57.203Z,160065.28
2022-12-08T09:42:04.049Z,160052.19
2022-12-08T09:45:12.667Z,160053.53
2022-12-08T09:48:24.196Z,160027.44
2022-12-08T09:51:33.151Z,160026.09
2022-12-08T09:54:36.983Z,160023.50
2022-12-08T09:57:41.355Z,160020.91
2022-12-08T10:00:45.882Z,160056.13
2022-12-08T10:03:50.323Z,160077.03
2022-12-08T10:07:18.558Z,160084.81
2022-12-08T10:10:46.719Z,160066.59
2022-12-08T10:14:12.023Z,160078.34
2022-12-08T10:17:26.052Z,160091.38
2022-12-08T10:20:40.204Z,160093.97
2022-12-08T10:23:55.539Z,160091.38
2022-12-08T10:27:01.470Z,160097.88
2022-12-08T10:30:13.662Z,160108.31
2022-12-08T10:33:19.973Z,160110.97
2022-12-08T10:36:44.427Z,160113.56
2022-12-08T10:40:00.366Z,160157.88
2022-12-08T10:43:06.901Z,160189.28
2022-12-08T10:46:17.112Z,160215.38
2022-12-08T10:49:28.903Z,160240.19
2022-12-08T10:52:38.291Z,160245.38
2022-12-08T10:55:51.594Z,160263.69
2022-12-08T10:59:17.915Z,160283.25
2022-12-08T11:02:22.793Z,160241.44
2022-12-08T11:05:35.706Z,160227.16
2022-12-08T11:09:08.652Z,160220.59
2022-12-08T11:12:17.078Z,160227.16
2022-12-08T11:15:21.833Z,160204.91
2022-12-08T11:18:29.241Z,160211.47
2022-12-08T11:21:37.327Z,160248.00
2022-12-08T11:24:41.335Z,160233.59
2022-12-08T11:27:48.117Z,160275.41
2022-12-08T11:31:00.682Z,160278.00
2022-12-08T11:34:06.314Z,160272.81
2022-12-08T11:37:34.747Z,160257.13
2022-12-08T11:40:42.123Z,160244.09
2022-12-08T11:43:59.564Z,160220.59
2022-12-08T11:47:10.658Z,160197.06
2022-12-08T11:50:28.392Z,160191.88
2022-12-08T11:53:49.841Z,160210.16
2022-12-08T11:56:56.714Z,160199.66
2022-12-08T12:00:03.735Z,160244.09
2022-12-08T12:03:23.500Z,160274.06
2022-12-08T12:07:09.386Z,160280.66
2022-12-08T12:10:28.802Z,160262.38
2022-12-08T12:13:51.839Z,160244.09
2022-12-08T12:17:36.317Z,160220.59
2022-12-08T12:20:49.095Z,160190.59
2022-12-08T12:24:04.780Z,160186.69
2022-12-08T12:27:15.349Z,160161.84
2022-12-08T12:30:27.325Z,160157.88
2022-12-08T12:33:32.800Z,160163.13
2022-12-08T12:37:03.500Z,160143.56
2022-12-08T12:40:20.554Z,160117.47
2022-12-08T12:43:30.924Z,160121.34
2022-12-08T12:46:54.660Z,160113.56
2022-12-08T12:50:07.620Z,160107.03
2022-12-08T12:53:18.951Z,160120.06
2022-12-08T12:56:52.919Z,160124.00
2022-12-08T12:59:59.787Z,160113.56
2022-12-08T13:03:03.861Z,160124.00
2022-12-08T13:06:14.653Z,160118.78
2022-12-08T13:09:28.892Z,160118.78
2022-12-08T13:12:32.793Z,160105.72
2022-12-08T13:15:47.023Z,160103.13
2022-12-08T13:18:56.026Z,160090.06
2022-12-08T13:22:00.623Z,160103.13
2022-12-08T13:25:38.868Z,160100.47
2022-12-08T13:29:01.324Z,160100.47
2022-12-08T13:32:08.722Z,160093.97
2022-12-08T13:35:12.854Z,160090.06
2022-12-08T13:38:20.618Z,160097.88
2022-12-08T13:41:49.405Z,160084.81
2022-12-08T13:56:51.401Z,160078.34
2022-12-08T13:59:27.984Z,160077.03
2022-12-08T14:02:47.049Z,160071.78
2022-12-08T14:09:21.141Z,160050.88
2022-12-08T14:12:27.900Z,160062.63
2022-12-08T14:15:38.522Z,160065.28
2022-12-08T14:18:42.805Z,160044.38
2022-12-08T14:22:06.226Z,160048.28
2022-12-08T14:25:15.961Z,160020.91
2022-12-08T14:28:20.041Z,160023.50
2022-12-08T14:31:23.995Z,160018.28
2022-12-08T14:34:27.992Z,160014.34
2022-12-08T14:37:34.138Z,160011.75
2022-12-08T14:40:41.627Z,160005.19
2022-12-08T14:43:45.824Z,159996.16
2022-12-08T14:47:21.059Z,160014.34
2022-12-08T14:50:39.330Z,160010.44
2022-12-08T14:54:13.309Z,160009.13
2022-12-08T14:57:17.780Z,159994.81
2022-12-08T15:00:23.270Z,159990.91
2022-12-08T15:03:29.943Z,159983.06
2022-12-08T15:06:34.755Z,159985.66
2022-12-08T15:09:42.051Z,159998.75
2022-12-08T15:13:10.621Z,159977.84
2022-12-08T15:16:28.146Z,159983.06
2022-12-08T15:19:33.993Z,159981.75
2022-12-08T15:22:38.965Z,159979.16
2022-12-08T15:25:43.116Z,159980.44
2022-12-08T15:28:47.263Z,159976.50
2022-12-08T15:31:53.715Z,159975.25
2022-12-08T15:34:58.020Z,159973.91
2022-12-08T15:38:02.224Z,159975.25
2022-12-08T15:41:11.521Z,159984.34
2022-12-08T15:44:18.453Z,159990.91
2022-12-08T15:47:24.745Z,159985.66
2022-12-08T15:50:29.068Z,159994.81
2022-12-08T15:53:33.415Z,159996.16
2022-12-08T15:57:17.485Z,160003.94
2022-12-08T16:07:29.110Z,160009.13
2022-12-08T16:11:00.721Z,160005.19
2022-12-08T16:14:12.254Z,160001.34
2022-12-08T16:17:21.902Z,160002.59
2022-12-08T16:20:43.911Z,160015.69
2022-12-08T16:23:50.161Z,160023.50
2022-12-08T16:27:58.847Z,160015.69
2022-12-08T16:30:20.181Z,160007.84
2022-12-08T16:33:24.488Z,160017.00
2022-12-08T16:36:28.538Z,160002.59
2022-12-08T16:39:32.421Z,159917.78
2022-12-08T16:42:39.634Z,159846.06
2022-12-08T16:45:45.177Z,159800.41
2022-12-08T16:48:49.837Z,159756.09
2022-12-08T16:51:54.128Z,159696.06
2022-12-08T16:54:58.419Z,159670.00
2022-12-08T16:58:03.565Z,159658.25
2022-12-08T17:01:11.221Z,159647.84
2022-12-08T17:04:31.048Z,159602.22
2022-12-08T17:07:36.761Z,159593.06
2022-12-08T17:10:41.762Z,159591.75
2022-12-08T17:13:45.960Z,159599.56
2022-12-08T17:16:50.296Z,159603.53
2022-12-08T17:19:54.357Z,159589.16
2022-12-08T17:22:58.713Z,159580.00
2022-12-08T17:26:03.662Z,159563.09
2022-12-08T17:29:07.790Z,159543.53
2022-12-08T17:32:12.021Z,159531.81
2022-12-08T17:35:16.199Z,159512.25
2022-12-08T17:38:22.361Z,159518.75
2022-12-08T17:41:26.569Z,159508.34
2022-12-08T17:44:31.806Z,159491.44
2022-12-08T17:47:36.926Z,159473.16
2022-12-08T17:50:44.874Z,159441.88
2022-12-08T17:53:48.813Z,159430.13
2022-12-08T17:56:53.352Z,159450.94
2022-12-08T17:59:57.620Z,159443.13
2022-12-08T18:03:01.844Z,159443.13
2022-12-08T18:06:10.752Z,159478.38
2022-12-08T18:09:15.499Z,159469.25
2022-12-08T18:12:23.363Z,159445.78
2022-12-08T18:15:28.488Z,159402.75
2022-12-08T18:18:32.503Z,159417.13
2022-12-08T18:21:36.777Z,159422.31
2022-12-08T18:24:40.809Z,159458.81
2022-12-08T18:27:45.205Z,159500.53
2022-12-08T18:30:49.574Z,159460.09
2022-12-08T18:33:53.747Z,159448.38
2022-12-08T18:36:58.123Z,159432.78
2022-12-08T18:40:02.310Z,159424.94
2022-12-08T18:43:06.460Z,159411.91
2022-12-08T18:46:13.542Z,159424.94
2022-12-08T18:49:19.122Z,159417.13
2022-12-08T18:52:30.976Z,159409.31
2022-12-08T18:55:37.641Z,159405.34
2022-12-08T18:58:41.872Z,159394.94
2022-12-08T19:01:45.766Z,159394.94
2022-12-08T19:04:49.962Z,159409.31
2022-12-08T19:07:54.326Z,159411.91
2022-12-08T19:10:59.274Z,159411.91
2022-12-08T19:14:03.484Z,159404.09
2022-12-08T19:17:08.063Z,159401.44
2022-12-08T19:20:12.776Z,159398.84
2022-12-08T19:23:17.058Z,159392.34
2022-12-08T19:26:22.197Z,159366.25
2022-12-08T19:29:29.802Z,159372.75
2022-12-08T19:32:34.266Z,159370.16
2022-12-08T19:35:38.633Z,159372.75
2022-12-08T19:39:01.380Z,159364.94
2022-12-08T19:42:38.677Z,159370.16
2022-12-08T19:45:44.956Z,159345.44
2022-12-08T19:48:49.055Z,159354.59
2022-12-08T19:51:53.429Z,159351.94
2022-12-08T19:54:57.690Z,159351.94
2022-12-08T19:58:03.277Z,159338.94
2022-12-08T20:01:07.119Z,159328.50
2022-12-08T20:04:16.358Z,159315.44
2022-12-08T20:07:20.967Z,159324.56
2022-12-08T20:10:33.712Z,159334.97
2022-12-08T20:13:47.986Z,159337.63
2022-12-08T20:16:52.339Z,159346.75
2022-12-08T20:19:56.415Z,159353.25
2022-12-08T20:23:00.251Z,159348.03
2022-12-08T20:26:06.798Z,159370.16
2022-12-08T20:29:10.757Z,159372.75
2022-12-08T20:32:15.295Z,159377.97
2022-12-08T20:35:19.226Z,159375.41
2022-12-08T20:38:23.287Z,159345.44
2022-12-08T20:41:27.353Z,159359.75
2022-12-08T20:44:31.307Z,159355.84
2022-12-08T20:47:36.489Z,159354.59
2022-12-08T20:50:40.716Z,159349.34
2022-12-08T20:53:45.778Z,159344.13
2022-12-08T20:56:49.956Z,159344.13
2022-12-08T20:59:54.013Z,159348.03
2022-12-08T21:02:58.229Z,159357.16
2022-12-08T21:06:03.254Z,159372.75
2022-12-08T21:09:07.362Z,159349.34
2022-12-08T21:12:11.595Z,159357.16
2022-12-08T21:15:15.921Z,159346.75
2022-12-08T21:18:20.603Z,159329.81
2022-12-08T21:21:27.451Z,159332.41
2022-12-08T21:24:34.193Z,159333.72
2022-12-08T21:27:39.996Z,159324.56
2022-12-08T21:30:44.428Z,159322.00
2022-12-08T21:33:49.201Z,159323.25
2022-12-08T21:36:53.547Z,159310.22
2022-12-08T21:39:57.895Z,159310.22
2022-12-08T21:43:03.744Z,159306.31
2022-12-08T21:46:16.202Z,159303.72
2022-12-08T21:49:20.527Z,159311.53
2022-12-08T21:52:25.401Z,159312.84
2022-12-08T21:55:29.393Z,159311.53
2022-12-08T21:58:33.767Z,159320.66
2022-12-08T22:01:38.214Z,159336.31
2022-12-08T22:04:42.776Z,159346.75
2022-12-08T22:07:47.177Z,159349.34
2022-12-08T22:10:51.734Z,159338.94
2022-12-08T22:13:56.115Z,159334.97
2022-12-08T22:17:00.553Z,159333.72
2022-12-08T22:20:07.245Z,159340.22
2022-12-08T22:23:11.884Z,159344.13
2022-12-08T22:26:15.997Z,159346.75
2022-12-08T22:29:20.323Z,159338.94
2022-12-08T22:32:24.763Z,159346.75
2022-12-08T22:35:28.856Z,159346.75
2022-12-08T22:38:33.983Z,159333.72
2022-12-08T22:41:38.236Z,159323.25
2022-12-08T22:44:42.435Z,159329.81
2022-12-08T22:47:46.543Z,159323.25
2022-12-08T22:50:51.030Z,159311.53
2022-12-08T22:53:55.034Z,159294.56
2022-12-08T22:56:59.247Z,159286.75
2022-12-08T23:00:06.030Z,159286.75
2022-12-08T23:03:10.740Z,159276.41
2022-12-08T23:06:14.879Z,159269.84
2022-12-08T23:09:19.128Z,159265.94
2022-12-08T23:12:23.577Z,159269.84
2022-12-08T23:15:28.087Z,159286.75
2022-12-08T23:18:32.307Z,159286.75
2022-12-08T23:21:36.487Z,159286.75
2022-12-08T23:24:40.554Z,159293.31
2022-12-08T23:27:45.253Z,159297.22
2022-12-08T23:30:49.271Z,159310.22
2022-12-08T23:33:54.271Z,159310.22
2022-12-08T23:36:58.559Z,159329.81
2022-12-08T23:40:02.998Z,159336.31
2022-12-08T23:43:07.088Z,159340.22
2022-12-08T23:46:12.306Z,159328.50
2022-12-08T23:49:16.594Z,159325.91
2022-12-08T23:52:20.740Z,159315.44
2022-12-08T23:55:25.675Z,159308.94
2022-12-08T23:58:31.463Z,159320.66
